createdAt,value
2022-11-03T00:02:10.877Z,12.10
2022-11-03T00:04:38.030Z,12.10
2022-11-03T00:07:05.135Z,12.20
2022-11-03T00:09:32.414Z,12.10
2022-11-03T00:11:59.398Z,12.20
2022-11-03T00:14:26.355Z,12.10
2022-11-03T00:16:53.650Z,12.10
2022-11-03T00:19:20.919Z,12.20
2022-11-03T00:21:48.226Z,12.10
2022-11-03T00:24:15.199Z,12.10
2022-11-03T00:26:42.096Z,12.20
2022-11-03T00:29:12.368Z,12.20
2022-11-03T00:31:42.775Z,12.20
2022-11-03T00:34:10.989Z,12.20
2022-11-03T00:36:41.990Z,12.20
2022-11-03T00:39:10.391Z,12.20
2022-11-03T00:41:38.517Z,12.20
2022-11-03T00:44:05.571Z,12.20
2022-11-03T00:46:35.961Z,12.20
2022-11-03T00:49:05.082Z,12.20
2022-11-03T00:51:34.537Z,12.20
2022-11-03T00:54:04.488Z,12.20
2022-11-03T00:56:34.127Z,12.20
2022-11-03T00:59:02.955Z,12.20
2022-11-03T01:01:40.562Z,12.20
2022-11-03T01:04:30.619Z,12.20
2022-11-03T01:06:59.780Z,12.20
2022-11-03T01:09:35.344Z,12.20
2022-11-03T01:12:06.688Z,12.10
2022-11-03T01:14:41.062Z,12.10
2022-11-03T01:17:11.978Z,12.10
2022-11-03T01:19:38.951Z,12.20
2022-11-03T01:22:10.607Z,12.10
2022-11-03T01:24:41.313Z,12.10
2022-11-03T01:27:10.328Z,12.10
2022-11-03T01:29:37.270Z,12.10
2022-11-03T01:32:04.456Z,12.10
2022-11-03T01:34:31.727Z,12.10
2022-11-03T01:36:58.849Z,12.10
2022-11-03T01:39:26.214Z,12.10
2022-11-03T01:41:53.518Z,12.00
2022-11-03T01:44:26.532Z,12.00
2022-11-03T01:47:12.369Z,12.00
2022-11-03T01:49:45.217Z,12.00
2022-11-03T01:52:25.782Z,11.90
2022-11-03T01:55:24.689Z,11.90
2022-11-03T01:58:05.839Z,11.90
2022-11-03T02:00:33.284Z,11.90
2022-11-03T02:03:01.336Z,11.90
2022-11-03T02:05:30.388Z,11.90
2022-11-03T02:08:02.286Z,11.90
2022-11-03T02:10:29.456Z,11.90
2022-11-03T02:12:57.113Z,11.90
2022-11-03T02:15:25.127Z,11.90
2022-11-03T02:17:55.108Z,11.90
2022-11-03T02:20:29.662Z,11.80
2022-11-03T02:23:12.289Z,11.90
2022-11-03T02:25:53.912Z,11.90
2022-11-03T02:28:32.930Z,11.80
2022-11-03T02:31:23.752Z,11.90
2022-11-03T02:34:12.101Z,11.80
2022-11-03T02:36:59.250Z,11.80
2022-11-03T02:39:42.188Z,11.80
2022-11-03T02:42:12.182Z,11.80
2022-11-03T02:44:41.513Z,11.80
2022-11-03T02:47:13.573Z,11.80
2022-11-03T02:52:44.082Z,11.80
2022-11-03T02:55:26.175Z,11.80
2022-11-03T02:58:12.971Z,11.80
2022-11-03T03:01:01.907Z,11.90
2022-11-03T03:03:42.731Z,11.80
2022-11-03T03:06:18.202Z,11.80
2022-11-03T03:08:51.580Z,11.80
2022-11-03T03:11:37.384Z,11.90
2022-11-03T03:14:21.393Z,11.90
2022-11-03T03:17:05.478Z,11.90
2022-11-03T03:19:49.456Z,11.90
2022-11-03T03:22:43.674Z,12.00
2022-11-03T03:25:34.381Z,12.00
2022-11-03T03:28:11.514Z,12.00
2022-11-03T03:30:42.375Z,12.00
2022-11-03T03:33:11.819Z,12.00
2022-11-03T03:35:44.436Z,12.00
2022-11-03T03:38:22.566Z,12.00
2022-11-03T03:40:55.553Z,12.00
2022-11-03T03:43:26.624Z,12.00
2022-11-03T03:45:58.630Z,12.00
2022-11-03T03:48:25.684Z,12.00
2022-11-03T03:50:53.959Z,12.00
2022-11-03T03:53:21.158Z,12.00
2022-11-03T03:55:52.186Z,12.00
2022-11-03T03:58:19.525Z,12.00
2022-11-03T04:00:49.499Z,12.00
2022-11-03T04:03:22.588Z,12.00
2022-11-03T04:05:51.053Z,12.00
2022-11-03T04:08:18.973Z,12.10
2022-11-03T04:11:05.060Z,12.10
2022-11-03T04:13:52.216Z,12.10
2022-11-03T04:16:38.022Z,12.10
2022-11-03T04:19:24.501Z,12.20
2022-11-03T04:22:10.813Z,12.10
2022-11-03T04:24:38.101Z,12.10
2022-11-03T04:27:38.358Z,12.10
2022-11-03T04:30:21.214Z,12.10
2022-11-03T04:32:51.200Z,12.10
2022-11-03T04:35:23.853Z,12.10
2022-11-03T04:38:17.221Z,12.10
2022-11-03T04:41:00.538Z,12.10
2022-11-03T04:43:36.156Z,12.10
2022-11-03T04:46:04.255Z,12.10
2022-11-03T04:48:33.053Z,12.10
2022-11-03T04:51:11.160Z,12.10
2022-11-03T04:53:38.992Z,12.10
2022-11-03T04:56:21.183Z,12.10
2022-11-03T04:58:48.919Z,12.10
2022-11-03T05:01:24.215Z,12.10
2022-11-03T05:03:55.546Z,12.10
2022-11-03T05:06:30.424Z,12.10
2022-11-03T05:09:13.572Z,12.10
2022-11-03T05:11:47.220Z,12.10
2022-11-03T05:14:20.009Z,12.10
2022-11-03T05:16:49.536Z,12.10
2022-11-03T05:19:43.698Z,12.10
2022-11-03T05:22:20.509Z,12.10
2022-11-03T05:24:47.729Z,12.10
2022-11-03T05:27:21.667Z,12.10
2022-11-03T05:29:53.959Z,12.10
2022-11-03T05:32:33.594Z,12.20
2022-11-03T05:35:01.356Z,12.20
2022-11-03T05:37:36.143Z,12.20
2022-11-03T05:40:26.088Z,12.30
2022-11-03T05:43:01.482Z,12.20
2022-11-03T05:45:35.850Z,12.20
2022-11-03T05:48:32.364Z,12.30
2022-11-03T05:51:02.646Z,12.30
2022-11-03T05:53:38.491Z,12.30
2022-11-03T05:56:07.206Z,12.30
2022-11-03T05:58:38.917Z,12.30
2022-11-03T06:01:18.809Z,12.30
2022-11-03T06:03:47.557Z,12.30
2022-11-03T06:06:32.718Z,12.30
2022-11-03T06:09:03.581Z,12.30
2022-11-03T06:11:36.623Z,12.30
2022-11-03T06:14:30.656Z,12.30
2022-11-03T06:17:06.011Z,12.30
2022-11-03T06:19:45.311Z,12.30
2022-11-03T06:22:30.929Z,12.30
2022-11-03T06:25:21.469Z,12.30
2022-11-03T06:27:48.369Z,12.30
2022-11-03T06:30:26.074Z,12.40
2022-11-03T06:32:58.083Z,12.30
2022-11-03T06:35:25.910Z,12.40
2022-11-03T06:37:53.801Z,12.30
2022-11-03T06:40:20.553Z,12.40
2022-11-03T06:42:47.431Z,12.30
2022-11-03T06:45:25.228Z,12.40
2022-11-03T06:47:55.388Z,12.40
2022-11-03T06:50:32.964Z,12.40
2022-11-03T06:53:04.523Z,12.50
2022-11-03T06:55:35.360Z,12.50
2022-11-03T06:58:28.473Z,12.40
2022-11-03T07:01:03.930Z,12.50
2022-11-03T07:03:37.407Z,12.50
2022-11-03T07:06:10.301Z,12.50
2022-11-03T07:09:04.900Z,12.50
2022-11-03T07:11:42.953Z,12.50
2022-11-03T07:14:17.748Z,12.60
2022-11-03T07:16:51.822Z,12.70
2022-11-03T07:19:30.876Z,12.70
2022-11-03T07:22:02.580Z,12.60
2022-11-03T07:24:42.022Z,12.70
2022-11-03T07:27:39.710Z,12.70
2022-11-03T07:30:34.738Z,12.70
2022-11-03T07:33:13.826Z,12.80
2022-11-03T07:36:13.722Z,12.90
2022-11-03T07:38:33.502Z,12.90
2022-11-03T07:41:00.897Z,13.00
2022-11-03T07:43:35.796Z,13.00
2022-11-03T07:46:04.936Z,13.10
2022-11-03T07:48:49.467Z,13.20
2022-11-03T07:51:29.946Z,13.20
2022-11-03T07:54:02.585Z,13.30
2022-11-03T07:56:40.815Z,13.30
2022-11-03T07:59:13.481Z,13.40
2022-11-03T08:01:47.332Z,13.50
2022-11-03T08:04:21.803Z,13.50
2022-11-03T08:06:49.204Z,13.70
2022-11-03T08:09:16.691Z,13.90
2022-11-03T08:11:44.069Z,14.00
2022-11-03T08:14:11.343Z,14.00
2022-11-03T08:16:39.084Z,14.00
2022-11-03T08:19:07.770Z,13.90
2022-11-03T08:21:35.624Z,13.90
2022-11-03T08:24:08.322Z,13.80
2022-11-03T08:26:35.489Z,13.80
2022-11-03T08:29:02.714Z,13.80
2022-11-03T08:31:29.608Z,13.80
2022-11-03T08:33:56.497Z,13.70
2022-11-03T08:36:24.077Z,13.70
2022-11-03T08:38:50.960Z,13.80
2022-11-03T08:41:17.882Z,13.90
2022-11-03T08:43:44.795Z,14.00
2022-11-03T08:46:17.767Z,14.10
2022-11-03T08:48:46.166Z,14.20
2022-11-03T08:51:14.999Z,14.30
2022-11-03T08:53:43.165Z,14.40
2022-11-03T08:56:13.171Z,14.50
2022-11-03T08:58:44.051Z,14.50
2022-11-03T09:01:12.327Z,14.60
2022-11-03T09:03:40.306Z,14.60
2022-11-03T09:06:08.575Z,14.50
2022-11-03T09:11:41.184Z,14.40
2022-11-03T09:14:09.030Z,14.40
2022-11-03T09:16:40.066Z,14.40
2022-11-03T09:19:10.698Z,14.30
2022-11-03T09:21:37.905Z,14.30
2022-11-03T09:24:08.719Z,14.30
2022-11-03T09:26:36.871Z,14.30
2022-11-03T09:31:53.122Z,14.40
2022-11-03T09:34:20.217Z,14.40
2022-11-03T09:36:52.957Z,14.40
2022-11-03T09:39:20.704Z,14.50
2022-11-03T09:41:58.140Z,14.70
2022-11-03T09:44:28.094Z,14.80
2022-11-03T09:46:58.208Z,15.00
2022-11-03T09:49:26.371Z,15.20
2022-11-03T09:51:54.137Z,15.40
2022-11-03T09:54:21.047Z,15.50
2022-11-03T09:56:48.163Z,15.60
2022-11-03T09:59:21.614Z,15.60
2022-11-03T10:01:53.558Z,15.50
2022-11-03T10:04:28.422Z,15.50
2022-11-03T10:06:57.420Z,15.40
2022-11-03T10:09:26.158Z,15.40
2022-11-03T10:11:55.176Z,15.30
2022-11-03T10:14:24.015Z,15.30
2022-11-03T10:16:57.770Z,15.20
2022-11-03T10:19:25.053Z,15.20
2022-11-03T10:21:52.516Z,15.20
2022-11-03T10:24:19.759Z,15.20
2022-11-03T10:26:53.231Z,15.20
2022-11-03T10:29:28.524Z,15.20
2022-11-03T10:31:58.657Z,15.20
2022-11-03T10:34:39.302Z,15.20
2022-11-03T10:37:24.875Z,15.20
2022-11-03T10:39:58.740Z,15.30
2022-11-03T10:42:36.000Z,15.20
2022-11-03T10:45:21.718Z,15.30
2022-11-03T10:48:02.427Z,15.30
2022-11-03T10:50:29.687Z,15.30
2022-11-03T10:53:05.208Z,15.40
2022-11-03T10:55:33.720Z,15.40
2022-11-03T10:58:03.606Z,15.40
2022-11-03T11:00:37.246Z,15.50
2022-11-03T11:03:15.068Z,15.50
2022-11-03T11:05:49.070Z,15.60
2022-11-03T11:08:25.553Z,15.60
2022-11-03T11:11:10.399Z,15.70
2022-11-03T11:14:07.456Z,15.80
2022-11-03T11:16:51.541Z,15.90
2022-11-03T11:19:20.471Z,16.00
2022-11-03T11:24:57.179Z,16.20
2022-11-03T11:36:40.129Z,17.10
2022-11-03T11:39:29.065Z,17.30
2022-11-03T11:45:04.115Z,17.50
2022-11-03T11:48:00.185Z,17.40
2022-11-03T11:50:31.642Z,17.30
2022-11-03T11:56:02.920Z,17.60
2022-11-03T12:01:37.866Z,17.50
2022-11-03T12:04:30.755Z,17.40
2022-11-03T12:06:59.221Z,17.40
2022-11-03T12:09:30.131Z,17.10
2022-11-03T12:14:41.452Z,16.90
2022-11-03T12:17:19.033Z,16.80
2022-11-03T12:19:49.902Z,16.70
2022-11-03T12:22:31.058Z,16.60
2022-11-03T12:25:04.155Z,16.40
2022-11-03T12:27:32.458Z,16.30
2022-11-03T12:30:05.416Z,16.20
2022-11-03T12:32:35.070Z,16.20
2022-11-03T12:35:05.728Z,16.20
2022-11-03T12:51:00.474Z,17.20
2022-11-03T12:53:42.641Z,17.20
2022-11-03T12:58:55.918Z,17.20
2022-11-03T13:01:34.602Z,17.10
2022-11-03T13:04:04.458Z,17.00
2022-11-03T13:06:35.266Z,17.00
2022-11-03T13:09:07.261Z,16.90
2022-11-03T13:12:02.384Z,16.80
2022-11-03T13:14:30.500Z,16.70
2022-11-03T13:19:39.475Z,16.50
2022-11-03T13:22:06.312Z,16.50
2022-11-03T13:29:56.389Z,16.30
2022-11-03T13:35:09.399Z,16.20
2022-11-03T13:37:39.896Z,16.10
2022-11-03T13:40:10.735Z,16.10
2022-11-03T13:42:43.179Z,16.10
2022-11-03T13:45:10.775Z,16.10
2022-11-03T13:48:15.464Z,16.10
2022-11-03T13:50:25.727Z,16.20
2022-11-03T13:52:52.863Z,16.20
2022-11-03T14:00:58.195Z,16.20
2022-11-03T14:06:14.061Z,16.10
2022-11-03T14:08:41.064Z,16.00
2022-11-03T14:11:27.457Z,16.00
2022-11-03T14:13:55.137Z,15.90
2022-11-03T14:16:22.486Z,15.90
2022-11-03T14:18:49.400Z,15.80
2022-11-03T14:21:17.712Z,15.80
2022-11-03T14:23:45.415Z,15.70
2022-11-03T14:28:53.916Z,15.70
2022-11-03T14:31:22.163Z,15.60
2022-11-03T14:33:49.732Z,15.60
2022-11-03T14:36:16.681Z,15.60
2022-11-03T14:38:49.826Z,15.60
2022-11-03T14:41:36.214Z,15.50
2022-11-03T14:44:05.990Z,15.50
2022-11-03T14:46:36.454Z,15.40
2022-11-03T14:49:04.627Z,15.40
2022-11-03T14:51:32.933Z,15.30
2022-11-03T14:54:01.514Z,15.30
2022-11-03T14:56:28.758Z,15.30
2022-11-03T14:58:58.477Z,15.30
2022-11-03T15:01:26.532Z,15.20
2022-11-03T15:03:55.604Z,15.20
2022-11-03T15:06:22.820Z,15.10
2022-11-03T15:08:56.117Z,15.00
2022-11-03T15:14:06.348Z,14.90
2022-11-03T15:16:41.035Z,14.70
2022-11-03T15:19:11.629Z,14.70
2022-11-03T15:27:09.234Z,14.40
2022-11-03T15:29:38.010Z,14.20
2022-11-03T15:32:05.701Z,14.10
2022-11-03T15:34:33.445Z,14.00
2022-11-03T15:37:01.202Z,13.90
2022-11-03T15:39:29.945Z,13.80
2022-11-03T15:41:57.922Z,13.80
2022-11-03T15:44:26.425Z,13.70
2022-11-03T15:46:53.459Z,13.60
2022-11-03T15:49:20.634Z,13.50
2022-11-03T15:51:48.641Z,13.40
2022-11-03T15:54:15.613Z,13.40
2022-11-03T15:56:43.339Z,13.30
2022-11-03T15:59:12.628Z,13.30
2022-11-03T16:01:41.633Z,13.20
2022-11-03T16:04:19.839Z,13.10
2022-11-03T16:09:37.144Z,13.00
2022-11-03T16:12:05.925Z,13.00
2022-11-03T16:14:39.570Z,12.90
2022-11-03T16:54:53.629Z,12.60
2022-11-03T17:00:19.670Z,12.50
2022-11-03T17:02:48.644Z,12.50
2022-11-03T17:11:09.905Z,12.50
2022-11-03T17:13:37.238Z,12.50
2022-11-03T17:16:15.260Z,12.50
2022-11-03T17:26:14.337Z,12.60
2022-11-03T17:38:47.940Z,12.50
2022-11-03T17:45:33.862Z,12.50
2022-11-03T17:48:08.140Z,12.40
2022-11-03T17:51:04.041Z,12.40
2022-11-03T17:53:55.723Z,12.50
2022-11-03T17:56:32.080Z,12.50
2022-11-03T17:59:12.595Z,12.50
2022-11-03T18:16:08.033Z,12.60
2022-11-03T18:18:41.731Z,12.70
2022-11-03T18:32:21.795Z,12.80
2022-11-03T18:34:50.310Z,12.80
2022-11-03T18:37:20.142Z,12.80
2022-11-03T18:51:16.036Z,12.90
2022-11-03T19:02:48.655Z,12.90
2022-11-03T19:05:25.162Z,12.90
2022-11-03T19:07:54.612Z,12.90
2022-11-03T19:10:23.338Z,12.90
2022-11-03T19:12:51.784Z,12.80
2022-11-03T19:15:27.771Z,12.90
2022-11-03T19:18:00.398Z,12.90
2022-11-03T19:20:27.507Z,12.90
2022-11-03T19:22:54.483Z,12.90
2022-11-03T19:25:21.525Z,12.90
2022-11-03T19:27:49.404Z,12.90
2022-11-03T19:30:19.413Z,12.90
2022-11-03T19:32:51.778Z,12.90
2022-11-03T19:35:45.352Z,12.90
2022-11-03T19:38:15.921Z,12.80
2022-11-03T19:41:03.337Z,12.80
2022-11-03T19:43:34.806Z,12.80
2022-11-03T19:46:02.926Z,12.80
2022-11-03T19:48:35.505Z,12.80
2022-11-03T19:51:06.362Z,12.80
2022-11-03T19:53:34.026Z,12.80
2022-11-03T19:56:01.761Z,12.80
2022-11-03T19:58:30.470Z,12.70
2022-11-03T20:01:02.827Z,12.80
2022-11-03T20:03:32.535Z,12.70
2022-11-03T20:06:03.263Z,12.70
2022-11-03T20:08:32.748Z,12.70
2022-11-03T20:10:59.648Z,12.70
2022-11-03T20:13:33.070Z,12.70
2022-11-03T20:16:01.786Z,12.70
2022-11-03T20:18:28.767Z,12.70
2022-11-03T20:20:56.203Z,12.70
2022-11-03T20:23:33.058Z,12.70
2022-11-03T20:26:01.514Z,12.70
2022-11-03T20:28:32.265Z,12.70
2022-11-03T20:31:03.749Z,12.70
2022-11-03T20:33:31.030Z,12.60
2022-11-03T20:35:59.133Z,12.60
2022-11-03T20:38:28.899Z,12.50
2022-11-03T20:41:01.663Z,12.50
2022-11-03T20:43:39.933Z,12.50
2022-11-03T20:52:34.197Z,12.40
2022-11-03T20:55:02.074Z,12.40
2022-11-03T20:57:29.171Z,12.50
2022-11-03T20:59:56.117Z,12.50
2022-11-03T21:02:25.063Z,12.40
2022-11-03T21:04:52.219Z,12.40
2022-11-03T21:07:19.187Z,12.40
2022-11-03T21:09:46.339Z,12.50
2022-11-03T21:12:14.714Z,12.40
2022-11-03T21:15:06.209Z,12.50
2022-11-03T21:18:00.547Z,12.50
2022-11-03T21:20:27.554Z,12.40
2022-11-03T21:22:54.745Z,12.40
2022-11-03T21:25:24.893Z,12.50
2022-11-03T21:27:54.688Z,12.50
2022-11-03T21:30:23.363Z,12.50
2022-11-03T21:32:51.914Z,12.50
2022-11-03T22:01:36.868Z,12.80
2022-11-03T22:04:04.244Z,12.80
2022-11-03T22:06:36.205Z,12.80
2022-11-03T22:09:03.632Z,12.80
2022-11-03T22:11:30.429Z,12.80
2022-11-03T22:14:00.492Z,12.80
2022-11-03T22:16:39.105Z,12.80
2022-11-03T22:19:51.512Z,12.90
2022-11-03T22:22:37.163Z,12.80
2022-11-03T22:25:24.240Z,12.80
2022-11-03T22:27:52.684Z,12.80
2022-11-03T22:30:39.421Z,12.80
2022-11-03T22:33:07.051Z,12.80
2022-11-03T22:35:53.826Z,12.80
2022-11-03T22:38:41.488Z,12.80
2022-11-03T22:41:27.911Z,12.80
2022-11-03T22:44:14.298Z,12.80
2022-11-03T22:46:41.450Z,12.80
2022-11-03T22:49:08.696Z,12.80
2022-11-03T22:51:35.795Z,12.70
2022-11-03T22:54:15.912Z,12.70
2022-11-03T22:56:47.041Z,12.60
2022-11-03T22:59:17.151Z,12.50
2022-11-03T23:01:44.346Z,12.30
2022-11-03T23:04:16.158Z,12.20
2022-11-03T23:06:45.512Z,12.10
2022-11-03T23:09:14.897Z,12.00
2022-11-03T23:11:41.874Z,11.90
2022-11-03T23:14:14.020Z,11.80
2022-11-03T23:16:48.137Z,11.80
2022-11-03T23:19:35.434Z,11.70
2022-11-03T23:22:03.394Z,11.70
2022-11-03T23:24:50.206Z,11.70
2022-11-03T23:27:20.836Z,11.60
2022-11-03T23:29:47.671Z,11.70
2022-11-03T23:32:14.901Z,11.60
2022-11-03T23:34:42.823Z,11.60
2022-11-03T23:37:10.574Z,11.60
2022-11-03T23:39:37.955Z,11.50
2022-11-03T23:42:05.344Z,11.50
2022-11-03T23:44:55.985Z,11.50
2022-11-03T23:47:41.660Z,11.50
2022-11-03T23:50:08.760Z,11.60
2022-11-03T23:52:36.081Z,11.60
2022-11-03T23:55:03.224Z,11.60
2022-11-03T23:57:48.484Z,11.70
